createdAt,value
2023-10-22T00:00:17.915Z,10.519
2023-10-22T00:01:17.652Z,10.492
2023-10-22T00:03:17.497Z,10.492
2023-10-22T00:04:18.183Z,10.503
2023-10-22T00:05:17.122Z,10.524
2023-10-22T00:06:17.724Z,10.500
2023-10-22T00:07:17.386Z,10.497
2023-10-22T00:08:16.890Z,10.489
2023-10-22T00:09:17.631Z,10.476
2023-10-22T00:10:17.279Z,10.495
2023-10-22T00:11:17.840Z,10.489
2023-10-22T00:12:17.662Z,10.468
2023-10-22T00:13:17.181Z,10.415
2023-10-22T00:14:17.732Z,10.391
2023-10-22T00:15:17.462Z,10.372
2023-10-22T00:16:17.177Z,10.388
2023-10-22T00:17:17.983Z,10.388
2023-10-22T00:18:17.935Z,10.393
2023-10-22T00:19:17.975Z,10.399
2023-10-22T00:20:17.595Z,10.380
2023-10-22T00:21:17.339Z,10.359
2023-10-22T00:22:18.208Z,10.345
2023-10-22T00:23:17.792Z,10.337
2023-10-22T00:24:17.458Z,10.369
2023-10-22T00:25:17.045Z,10.385
2023-10-22T00:26:17.614Z,10.383
2023-10-22T00:29:17.678Z,10.385
2023-10-22T00:30:17.314Z,10.388
2023-10-22T00:31:17.854Z,10.415
2023-10-22T00:32:17.448Z,10.404
2023-10-22T00:33:17.662Z,10.388
2023-10-22T00:34:18.838Z,10.401
2023-10-22T00:35:17.004Z,10.399
2023-10-22T00:36:17.426Z,10.388
2023-10-22T00:37:17.000Z,10.425
2023-10-22T00:38:17.630Z,10.415
2023-10-22T00:39:17.239Z,10.425
2023-10-22T00:40:17.834Z,10.401
2023-10-22T00:41:17.384Z,10.407
2023-10-22T00:42:17.356Z,10.361
2023-10-22T00:45:17.354Z,10.353
2023-10-22T00:46:17.053Z,10.351
2023-10-22T00:47:17.805Z,10.327
2023-10-22T00:48:17.691Z,10.313
2023-10-22T00:49:17.700Z,10.294
2023-10-22T00:50:17.321Z,10.270
2023-10-22T00:51:18.113Z,10.238
2023-10-22T00:52:17.649Z,10.196
2023-10-22T00:53:17.282Z,10.169
2023-10-22T00:54:18.246Z,10.145
2023-10-22T00:55:17.895Z,10.084
2023-10-22T00:56:17.427Z,10.089
2023-10-22T00:59:17.267Z,10.035
2023-10-22T01:00:18.070Z,10.060
2023-10-22T01:01:17.688Z,10.065
2023-10-22T01:02:17.460Z,9.971
2023-10-22T01:03:17.795Z,9.942
2023-10-22T01:04:17.408Z,9.889
2023-10-22T01:05:17.731Z,9.835
2023-10-22T01:06:17.527Z,9.854
2023-10-22T01:07:17.144Z,9.803
2023-10-22T01:08:17.778Z,9.859
2023-10-22T01:09:17.759Z,9.771
2023-10-22T01:10:17.847Z,9.817
2023-10-22T01:11:17.418Z,9.827
2023-10-22T01:12:17.041Z,9.747
2023-10-22T01:13:17.943Z,9.726
2023-10-22T01:15:17.235Z,9.640
2023-10-22T01:16:18.006Z,9.603
2023-10-22T01:17:17.651Z,9.656
2023-10-22T01:18:17.533Z,9.630
2023-10-22T01:20:16.947Z,9.707
2023-10-22T01:21:17.810Z,9.702
2023-10-22T01:22:17.389Z,9.694
2023-10-22T01:23:17.982Z,9.670
2023-10-22T01:24:17.646Z,9.691
2023-10-22T01:25:17.287Z,9.632
2023-10-22T01:26:17.936Z,9.582
2023-10-22T01:27:17.858Z,9.563
2023-10-22T01:28:17.449Z,9.539
2023-10-22T01:31:17.757Z,9.523
2023-10-22T01:32:17.723Z,9.517
2023-10-22T01:33:18.140Z,9.475
2023-10-22T01:34:17.048Z,9.595
2023-10-22T01:35:17.656Z,9.587
2023-10-22T01:36:17.407Z,9.544
2023-10-22T01:37:16.990Z,9.544
2023-10-22T01:38:17.559Z,9.582
2023-10-22T01:39:17.333Z,9.560
2023-10-22T01:40:17.556Z,9.568
2023-10-22T01:41:17.090Z,9.504
2023-10-22T01:42:17.857Z,9.598
2023-10-22T01:43:17.444Z,9.520
2023-10-22T01:44:16.981Z,9.574
2023-10-22T01:45:17.882Z,9.547
2023-10-22T01:46:17.524Z,9.507
2023-10-22T01:49:17.133Z,9.531
2023-10-22T01:50:18.082Z,9.491
2023-10-22T01:51:17.794Z,9.427
2023-10-22T01:52:17.491Z,9.448
2023-10-22T01:53:17.071Z,9.432
2023-10-22T01:54:17.776Z,9.408
2023-10-22T01:55:17.357Z,9.389
2023-10-22T01:56:17.430Z,9.427
2023-10-22T01:57:17.230Z,9.400
2023-10-22T01:58:17.800Z,9.373
2023-10-22T01:59:17.808Z,9.314
2023-10-22T02:00:17.502Z,9.258
2023-10-22T02:03:17.834Z,9.221
2023-10-22T02:04:17.932Z,9.205
2023-10-22T02:05:17.466Z,9.205
2023-10-22T02:07:17.899Z,9.205
2023-10-22T02:08:17.447Z,9.186
2023-10-22T02:09:17.067Z,9.146
2023-10-22T02:10:17.645Z,9.160
2023-10-22T02:11:17.288Z,9.133
2023-10-22T02:12:18.082Z,9.128
2023-10-22T02:13:17.930Z,9.112
2023-10-22T02:14:17.635Z,9.141
2023-10-22T02:15:17.277Z,9.074
2023-10-22T02:17:17.675Z,9.085
2023-10-22T02:18:17.736Z,9.063
2023-10-22T02:19:17.948Z,9.037
2023-10-22T02:20:17.452Z,9.050
2023-10-22T02:21:17.214Z,9.088
2023-10-22T02:22:17.761Z,9.074
2023-10-22T02:23:17.319Z,9.071
2023-10-22T02:24:18.166Z,8.981
2023-10-22T02:25:17.875Z,9.002
2023-10-22T02:27:17.180Z,8.954
2023-10-22T02:28:17.708Z,9.042
2023-10-22T02:29:17.235Z,8.991
2023-10-22T02:30:18.231Z,8.909
2023-10-22T02:31:18.132Z,8.898
2023-10-22T02:32:17.827Z,8.887
2023-10-22T02:33:18.265Z,8.925
2023-10-22T02:34:17.180Z,8.885
2023-10-22T02:35:17.814Z,8.909
2023-10-22T02:36:17.501Z,8.845
2023-10-22T02:37:17.205Z,8.807
2023-10-22T02:38:17.806Z,8.770
2023-10-22T02:39:17.478Z,8.812
2023-10-22T02:40:17.149Z,8.810
2023-10-22T02:41:17.768Z,8.879
2023-10-22T02:42:17.540Z,8.818
2023-10-22T02:43:17.522Z,8.746
2023-10-22T02:44:17.045Z,8.740
2023-10-22T02:45:17.824Z,8.783
2023-10-22T02:46:17.656Z,8.791
2023-10-22T02:47:17.327Z,8.826
2023-10-22T02:48:18.483Z,8.786
2023-10-22T02:49:17.533Z,8.826
2023-10-22T02:50:17.079Z,8.834
2023-10-22T02:51:17.887Z,8.764
2023-10-22T02:52:17.678Z,8.823
2023-10-22T02:54:17.149Z,8.826
2023-10-22T02:55:17.954Z,8.834
2023-10-22T02:56:17.549Z,8.845
2023-10-22T02:57:17.353Z,8.823
2023-10-22T02:58:17.111Z,8.834
2023-10-22T02:59:17.884Z,8.877
2023-10-22T03:00:35.553Z,8.901
2023-10-22T03:01:17.281Z,8.927
2023-10-22T03:03:18.649Z,8.917
2023-10-22T03:04:17.948Z,8.933
2023-10-22T03:05:17.893Z,8.927
2023-10-22T03:06:17.494Z,8.903
2023-10-22T03:07:17.105Z,8.911
2023-10-22T03:08:17.709Z,8.909
2023-10-22T03:09:17.443Z,8.917
2023-10-22T03:10:17.073Z,8.951
2023-10-22T03:11:17.613Z,8.935
2023-10-22T03:12:17.338Z,8.914
2023-10-22T03:14:17.859Z,8.927
2023-10-22T03:15:17.675Z,8.903
2023-10-22T03:16:17.609Z,8.871
2023-10-22T03:18:17.420Z,8.941
2023-10-22T03:21:18.113Z,8.885
2023-10-22T03:23:17.385Z,8.991
2023-10-22T03:24:17.186Z,8.938
2023-10-22T03:25:17.795Z,8.901
2023-10-22T03:26:17.495Z,8.882
2023-10-22T03:27:17.695Z,8.917
2023-10-22T03:28:17.324Z,8.812
2023-10-22T03:29:17.923Z,8.826
2023-10-22T03:30:17.782Z,8.796
2023-10-22T03:31:17.554Z,8.727
2023-10-22T03:32:17.431Z,8.775
2023-10-22T03:33:17.552Z,8.732
2023-10-22T03:35:17.358Z,8.711
2023-10-22T03:36:18.788Z,8.700
2023-10-22T03:37:17.410Z,8.674
2023-10-22T03:38:16.996Z,8.695
2023-10-22T03:39:17.877Z,8.679
2023-10-22T03:40:17.508Z,8.644
2023-10-22T03:41:17.145Z,8.623
2023-10-22T03:42:17.981Z,8.668
2023-10-22T03:43:17.621Z,8.564
2023-10-22T03:44:17.218Z,8.585
2023-10-22T03:45:18.016Z,8.559
2023-10-22T03:46:17.936Z,8.567
2023-10-22T03:47:17.697Z,8.559
2023-10-22T03:48:17.957Z,8.492
2023-10-22T03:49:17.366Z,8.527
2023-10-22T03:51:20.845Z,8.513
2023-10-22T03:52:18.398Z,8.481
2023-10-22T03:55:17.460Z,8.460
2023-10-22T03:56:17.575Z,8.385
2023-10-22T03:57:17.516Z,8.439
2023-10-22T03:58:17.226Z,8.444
2023-10-22T03:59:17.782Z,8.439
2023-10-22T04:01:18.059Z,8.393
2023-10-22T04:03:17.834Z,8.415
2023-10-22T04:04:18.204Z,8.431
2023-10-22T04:05:16.951Z,8.479
2023-10-22T04:06:17.878Z,8.391
2023-10-22T04:07:17.558Z,8.436
2023-10-22T04:08:17.166Z,8.417
2023-10-22T04:09:17.950Z,8.404
2023-10-22T04:10:17.545Z,8.401
2023-10-22T04:12:18.005Z,8.460
2023-10-22T04:13:17.898Z,8.460
2023-10-22T04:14:17.433Z,8.431
2023-10-22T04:15:17.110Z,8.439
2023-10-22T04:16:17.974Z,8.444
2023-10-22T04:18:17.957Z,8.444
2023-10-22T04:19:17.198Z,8.444
2023-10-22T04:20:17.860Z,8.505
2023-10-22T04:22:17.115Z,8.401
2023-10-22T04:23:17.673Z,8.372
2023-10-22T04:24:17.455Z,8.468
2023-10-22T04:25:17.215Z,8.441
2023-10-22T04:26:17.867Z,8.364
2023-10-22T04:27:17.587Z,8.286
2023-10-22T04:28:17.378Z,8.268
2023-10-22T04:29:17.081Z,8.169
2023-10-22T04:30:17.920Z,8.188
2023-10-22T04:31:18.123Z,8.166
2023-10-22T04:32:17.773Z,8.134
2023-10-22T04:33:18.069Z,8.214
2023-10-22T04:34:17.127Z,8.051
2023-10-22T04:35:17.778Z,8.252
2023-10-22T04:36:17.690Z,8.204
2023-10-22T04:37:17.557Z,8.246
2023-10-22T04:38:17.128Z,8.214
2023-10-22T04:39:18.022Z,8.241
2023-10-22T04:40:17.644Z,8.222
2023-10-22T04:41:17.403Z,8.190
2023-10-22T04:43:17.745Z,8.169
2023-10-22T04:44:17.297Z,8.132
2023-10-22T04:45:17.975Z,8.083
2023-10-22T04:46:17.736Z,8.075
2023-10-22T04:48:17.918Z,8.172
2023-10-22T04:49:17.838Z,8.196
2023-10-22T04:50:17.407Z,8.198
2023-10-22T04:51:17.213Z,8.204
2023-10-22T04:52:17.925Z,8.230
2023-10-22T04:53:17.533Z,8.140
2023-10-22T04:54:17.312Z,8.254
2023-10-22T04:55:17.937Z,8.204
2023-10-22T04:56:17.564Z,8.198
2023-10-22T04:57:17.282Z,8.214
2023-10-22T04:58:16.963Z,8.225
2023-10-22T04:59:17.489Z,8.124
2023-10-22T05:00:17.360Z,8.073
2023-10-22T05:01:17.453Z,8.105
2023-10-22T05:02:17.235Z,8.150
2023-10-22T05:03:18.227Z,8.142
2023-10-22T05:05:17.157Z,8.228
2023-10-22T05:06:20.514Z,8.134
2023-10-22T05:07:17.230Z,8.094
2023-10-22T05:08:17.965Z,8.113
2023-10-22T05:10:17.406Z,8.188
2023-10-22T05:11:17.013Z,8.156
2023-10-22T05:12:17.919Z,8.198
2023-10-22T05:13:17.672Z,8.241
2023-10-22T05:14:21.575Z,8.116
2023-10-22T05:15:17.305Z,8.113
2023-10-22T05:16:17.364Z,8.220
2023-10-22T05:17:17.524Z,8.241
2023-10-22T05:18:17.574Z,8.214
2023-10-22T05:19:17.640Z,8.278
2023-10-22T05:20:17.222Z,8.169
2023-10-22T05:21:18.195Z,8.164
2023-10-22T05:22:17.958Z,8.049
2023-10-22T05:23:17.578Z,8.051
2023-10-22T05:26:17.509Z,8.129
2023-10-22T05:27:17.271Z,8.116
2023-10-22T05:30:17.401Z,8.140
2023-10-22T05:31:17.371Z,8.150
2023-10-22T05:32:17.478Z,8.102
2023-10-22T05:33:17.398Z,8.027
2023-10-22T05:34:17.648Z,8.105
2023-10-22T05:35:17.147Z,8.108
2023-10-22T05:36:18.055Z,8.038
2023-10-22T05:37:18.049Z,7.990
2023-10-22T05:38:17.569Z,7.995
2023-10-22T05:39:17.248Z,7.931
2023-10-22T05:40:16.999Z,7.923
2023-10-22T05:41:17.568Z,7.982
2023-10-22T05:42:17.503Z,7.990
2023-10-22T05:43:17.191Z,8.009
2023-10-22T05:44:17.748Z,7.993
2023-10-22T05:45:17.465Z,8.051
2023-10-22T05:46:17.582Z,8.022
2023-10-22T05:47:17.419Z,7.993
2023-10-22T05:48:17.614Z,7.985
2023-10-22T05:50:17.058Z,7.958
2023-10-22T05:51:18.045Z,7.937
2023-10-22T05:52:17.729Z,7.953
2023-10-22T05:54:22.063Z,7.897
2023-10-22T05:55:17.755Z,7.937
2023-10-22T05:58:17.676Z,7.926
2023-10-22T05:59:17.157Z,7.915
2023-10-22T06:00:18.077Z,7.875
2023-10-22T06:01:18.056Z,7.859
2023-10-22T06:02:17.761Z,7.856
2023-10-22T06:03:17.546Z,7.875
2023-10-22T06:04:17.888Z,7.827
2023-10-22T06:05:27.562Z,7.806
2023-10-22T06:06:17.355Z,7.792
2023-10-22T06:07:17.278Z,7.779
2023-10-22T06:08:17.918Z,7.718
2023-10-22T06:09:17.586Z,7.726
2023-10-22T06:10:17.333Z,7.782
2023-10-22T06:11:17.162Z,7.787
2023-10-22T06:12:17.989Z,7.814
2023-10-22T06:13:17.745Z,7.819
2023-10-22T06:14:20.453Z,7.929
2023-10-22T06:15:17.159Z,7.889
2023-10-22T06:16:18.224Z,7.814
2023-10-22T06:17:17.874Z,7.782
2023-10-22T06:18:18.134Z,7.760
2023-10-22T06:20:17.691Z,7.774
2023-10-22T06:21:17.613Z,7.747
2023-10-22T06:23:16.971Z,7.752
2023-10-22T06:24:17.714Z,7.720
2023-10-22T06:25:17.517Z,7.736
2023-10-22T06:26:17.046Z,7.696
2023-10-22T06:27:17.870Z,7.651
2023-10-22T06:28:17.710Z,7.611
2023-10-22T06:29:17.213Z,7.635
2023-10-22T06:30:17.127Z,7.670
2023-10-22T06:31:17.835Z,7.670
2023-10-22T06:33:17.999Z,7.696
2023-10-22T06:34:17.766Z,7.678
2023-10-22T06:35:19.269Z,7.622
2023-10-22T06:36:18.007Z,7.643
2023-10-22T06:38:17.386Z,7.648
2023-10-22T06:39:17.292Z,7.654
2023-10-22T06:40:16.988Z,7.624
2023-10-22T06:41:17.678Z,7.662
2023-10-22T06:42:17.441Z,7.627
2023-10-22T06:43:17.150Z,7.656
2023-10-22T06:44:17.684Z,7.678
2023-10-22T06:45:17.495Z,7.635
2023-10-22T06:46:17.576Z,7.643
2023-10-22T06:48:17.681Z,7.622
2023-10-22T06:49:17.661Z,7.608
2023-10-22T06:50:17.350Z,7.659
2023-10-22T06:51:18.540Z,7.670
2023-10-22T06:52:17.295Z,7.712
2023-10-22T06:53:17.941Z,7.670
2023-10-22T06:54:17.716Z,7.688
2023-10-22T06:55:17.450Z,7.648
2023-10-22T06:56:17.174Z,7.691
2023-10-22T06:57:18.132Z,7.771
2023-10-22T07:00:17.479Z,7.859
2023-10-22T07:01:17.537Z,7.875
2023-10-22T07:02:17.223Z,7.937
2023-10-22T07:03:18.415Z,7.955
2023-10-22T07:04:17.835Z,8.014
2023-10-22T07:07:17.337Z,8.313
2023-10-22T07:08:17.908Z,8.369
2023-10-22T07:09:17.628Z,8.420
2023-10-22T07:10:17.330Z,8.476
2023-10-22T07:12:17.636Z,8.599
2023-10-22T07:15:17.942Z,8.786
2023-10-22T07:16:18.004Z,8.732
2023-10-22T07:17:17.596Z,8.845
2023-10-22T07:18:17.843Z,8.882
2023-10-22T07:19:17.988Z,8.951
2023-10-22T07:20:17.585Z,9.066
2023-10-22T07:21:17.190Z,9.023
2023-10-22T07:22:16.907Z,9.079
2023-10-22T07:23:17.575Z,9.146
2023-10-22T07:24:17.333Z,9.114
2023-10-22T07:25:17.084Z,9.162
2023-10-22T07:26:17.727Z,9.213
2023-10-22T07:27:17.416Z,9.269
2023-10-22T07:30:17.616Z,9.501
2023-10-22T07:31:17.392Z,9.555
2023-10-22T07:33:18.379Z,9.688
2023-10-22T07:34:17.461Z,9.782
2023-10-22T07:35:19.743Z,9.795
2023-10-22T07:37:17.212Z,10.035
2023-10-22T07:38:17.762Z,10.051
2023-10-22T07:39:17.706Z,10.100
2023-10-22T07:41:17.131Z,10.257
2023-10-22T07:42:18.015Z,10.335
2023-10-22T07:43:17.936Z,10.380
2023-10-22T07:44:17.643Z,10.508
2023-10-22T07:45:17.528Z,10.588
2023-10-22T07:46:17.671Z,10.740
2023-10-22T07:47:17.406Z,10.695
2023-10-22T07:48:17.594Z,10.746
2023-10-22T07:49:17.575Z,10.770
2023-10-22T07:50:17.122Z,10.901
2023-10-22T07:51:18.011Z,11.109
2023-10-22T07:52:17.626Z,11.152
2023-10-22T07:55:17.741Z,11.323
2023-10-22T07:56:17.243Z,11.258
2023-10-22T07:57:18.217Z,11.387
2023-10-22T07:58:17.916Z,11.355
2023-10-22T08:01:17.908Z,11.608
2023-10-22T08:02:17.857Z,11.558
2023-10-22T08:03:18.029Z,11.688
2023-10-22T08:04:17.344Z,11.710
2023-10-22T08:05:19.962Z,11.854
2023-10-22T08:07:17.529Z,11.811
2023-10-22T08:08:17.051Z,11.969
2023-10-22T08:09:17.860Z,11.849
2023-10-22T08:10:17.516Z,11.937
2023-10-22T08:11:17.277Z,12.022
2023-10-22T08:12:17.573Z,11.969
2023-10-22T08:15:18.435Z,12.257
2023-10-22T08:16:17.426Z,12.268
2023-10-22T08:17:17.370Z,12.263
2023-10-22T08:18:17.595Z,12.332
2023-10-22T08:19:17.526Z,12.380
2023-10-22T08:20:17.187Z,12.409
2023-10-22T08:21:17.993Z,12.522
2023-10-22T08:22:17.598Z,12.695
2023-10-22T08:23:17.175Z,12.682
2023-10-22T08:24:17.961Z,12.671
2023-10-22T08:25:17.727Z,12.698
2023-10-22T08:27:18.146Z,12.911
2023-10-22T08:29:17.698Z,13.061
2023-10-22T08:30:21.034Z,13.016
2023-10-22T08:32:17.722Z,13.032
2023-10-22T08:33:17.789Z,13.208
2023-10-22T08:35:17.301Z,13.443
2023-10-22T08:36:18.160Z,13.331
2023-10-22T08:37:17.749Z,13.219
2023-10-22T08:38:17.354Z,13.272
2023-10-22T08:39:18.037Z,13.544
2023-10-22T08:40:17.758Z,13.643
2023-10-22T08:42:17.201Z,13.779
2023-10-22T08:43:17.861Z,13.862
2023-10-22T08:44:17.454Z,13.643
2023-10-22T08:45:17.229Z,13.814
2023-10-22T08:46:17.343Z,13.721
2023-10-22T08:47:17.203Z,13.894
2023-10-22T08:48:18.482Z,13.827
2023-10-22T08:49:18.964Z,14.140
2023-10-22T08:50:17.926Z,13.998
2023-10-22T08:51:17.775Z,14.148
2023-10-22T08:52:17.383Z,14.132
2023-10-22T08:55:18.890Z,14.458
2023-10-22T08:56:17.455Z,14.452
2023-10-22T08:57:17.247Z,14.431
2023-10-22T08:58:17.972Z,14.212
2023-10-22T08:59:17.546Z,14.329
2023-10-22T09:00:17.418Z,14.188
2023-10-22T09:01:17.602Z,14.305
2023-10-22T09:02:17.313Z,14.527
2023-10-22T09:03:19.005Z,14.620
2023-10-22T09:04:17.790Z,14.177
2023-10-22T09:05:17.857Z,14.353
2023-10-22T09:06:17.689Z,14.677
2023-10-22T09:07:17.401Z,14.439
2023-10-22T09:10:17.465Z,14.367
2023-10-22T09:11:17.014Z,14.463
2023-10-22T09:12:17.787Z,14.399
2023-10-22T09:13:17.755Z,14.559
2023-10-22T09:14:17.470Z,14.401
2023-10-22T09:18:18.455Z,14.383
2023-10-22T09:19:17.376Z,14.479
2023-10-22T09:20:17.200Z,14.615
2023-10-22T09:21:17.247Z,14.599
2023-10-22T09:22:18.128Z,15.061
2023-10-22T09:23:20.838Z,15.016
2023-10-22T09:24:20.530Z,15.165
2023-10-22T09:25:20.211Z,14.693
2023-10-22T09:26:20.812Z,14.895
2023-10-22T09:28:20.287Z,15.288
2023-10-22T09:29:20.898Z,14.562
2023-10-22T09:30:20.748Z,14.767
2023-10-22T09:32:20.514Z,15.114
2023-10-22T09:33:21.082Z,15.171
2023-10-22T09:34:19.959Z,15.037
2023-10-22T09:35:20.831Z,15.269
2023-10-22T09:36:20.505Z,15.157
2023-10-22T09:37:20.102Z,14.944
2023-10-22T09:38:20.754Z,15.373
2023-10-22T09:39:20.506Z,14.898
2023-10-22T09:40:20.140Z,15.013
2023-10-22T09:41:20.850Z,15.478
2023-10-22T09:42:24.159Z,15.462
2023-10-22T09:43:20.783Z,15.368
2023-10-22T09:45:21.196Z,15.392
2023-10-22T09:46:20.322Z,15.547
2023-10-22T09:48:22.615Z,15.624
2023-10-22T09:49:17.485Z,15.459
2023-10-22T09:51:17.935Z,15.304
2023-10-22T09:52:17.643Z,15.710
2023-10-22T09:53:17.164Z,15.956
2023-10-22T09:54:18.016Z,15.921
2023-10-22T09:55:17.730Z,15.657
2023-10-22T09:56:17.308Z,15.787
2023-10-22T09:57:18.147Z,16.089
2023-10-22T09:58:17.892Z,16.231
2023-10-22T10:00:17.511Z,16.054
2023-10-22T10:01:17.834Z,16.118
2023-10-22T10:02:23.488Z,16.116
2023-10-22T10:03:18.035Z,16.257
2023-10-22T10:04:18.518Z,16.332
2023-10-22T10:05:17.236Z,16.396
2023-10-22T10:06:18.093Z,16.321
2023-10-22T10:07:17.035Z,16.386
2023-10-22T10:08:17.780Z,16.378
2023-10-22T10:09:17.479Z,16.281
2023-10-22T10:10:17.469Z,16.332
2023-10-22T10:11:17.070Z,16.383
2023-10-22T10:12:18.164Z,16.361
2023-10-22T10:14:17.540Z,16.610
2023-10-22T10:15:17.346Z,16.538
2023-10-22T10:16:17.083Z,16.578
2023-10-22T10:17:17.958Z,16.426
2023-10-22T10:18:17.684Z,16.460
2023-10-22T10:19:17.683Z,16.663
2023-10-22T10:20:17.390Z,16.637
2023-10-22T10:21:17.093Z,16.498
2023-10-22T10:22:17.842Z,16.126
2023-10-22T10:23:17.442Z,16.252
2023-10-22T10:25:17.076Z,16.439
2023-10-22T10:26:17.663Z,16.295
2023-10-22T10:27:17.353Z,16.556
2023-10-22T10:28:17.018Z,16.345
2023-10-22T10:29:17.937Z,16.490
2023-10-22T10:30:18.149Z,16.300
2023-10-22T10:31:17.066Z,16.666
2023-10-22T10:32:17.908Z,16.506
2023-10-22T10:33:20.221Z,16.020
2023-10-22T10:34:17.388Z,16.156
2023-10-22T10:36:17.773Z,16.343
2023-10-22T10:37:17.487Z,16.474
2023-10-22T10:38:17.243Z,16.845
2023-10-22T10:39:17.551Z,16.909
2023-10-22T10:40:17.323Z,16.770
2023-10-22T10:41:17.980Z,16.514
2023-10-22T10:42:18.130Z,16.276
2023-10-22T10:43:17.722Z,16.332
2023-10-22T10:44:17.394Z,16.295
2023-10-22T10:45:17.342Z,16.380
2023-10-22T10:46:17.773Z,16.690
2023-10-22T10:47:18.045Z,16.839
2023-10-22T10:48:17.369Z,16.159
2023-10-22T10:49:17.454Z,16.297
2023-10-22T10:50:17.182Z,16.407
2023-10-22T10:51:17.930Z,16.580
2023-10-22T10:52:19.310Z,16.580
2023-10-22T10:54:17.146Z,16.834
2023-10-22T10:55:17.865Z,17.061
2023-10-22T10:56:17.389Z,17.224
2023-10-22T10:57:17.191Z,17.109
2023-10-22T10:58:21.822Z,17.005
2023-10-22T10:59:17.437Z,16.936
2023-10-22T11:00:17.268Z,17.272
2023-10-22T11:01:18.213Z,17.171
2023-10-22T11:02:17.777Z,16.970
2023-10-22T11:03:20.091Z,16.717
2023-10-22T11:04:17.123Z,16.791
2023-10-22T11:05:17.845Z,16.669
2023-10-22T11:06:17.636Z,16.781
2023-10-22T11:07:30.332Z,16.610
2023-10-22T11:08:17.900Z,16.639
2023-10-22T11:10:17.340Z,16.813
2023-10-22T11:11:17.928Z,16.767
2023-10-22T11:12:17.804Z,16.954
2023-10-22T11:14:17.309Z,17.309
2023-10-22T11:15:18.980Z,17.456
2023-10-22T11:16:17.857Z,17.630
2023-10-22T11:18:17.957Z,17.635
2023-10-22T11:19:17.955Z,17.582
2023-10-22T11:20:17.574Z,17.325
2023-10-22T11:22:17.205Z,17.173
2023-10-22T11:23:17.763Z,17.219
2023-10-22T11:24:17.503Z,16.989
2023-10-22T11:27:17.692Z,17.235
2023-10-22T11:28:17.379Z,17.232
2023-10-22T11:29:16.956Z,17.093
2023-10-22T11:30:17.694Z,17.245
2023-10-22T11:31:17.685Z,17.168
2023-10-22T11:32:17.410Z,17.136
2023-10-22T11:33:17.336Z,16.746
2023-10-22T11:36:18.073Z,16.882
2023-10-22T11:37:18.112Z,16.938
2023-10-22T11:38:17.807Z,17.123
2023-10-22T11:39:34.897Z,17.272
2023-10-22T11:41:17.844Z,17.480
2023-10-22T11:42:17.990Z,17.836
2023-10-22T11:43:17.788Z,18.084
2023-10-22T11:45:18.212Z,17.940
2023-10-22T11:46:17.158Z,17.897
2023-10-22T11:47:17.879Z,17.833
2023-10-22T11:48:17.920Z,17.643
2023-10-22T11:49:17.847Z,17.269
2023-10-22T11:50:17.505Z,17.032
2023-10-22T11:53:23.010Z,17.467
2023-10-22T11:54:17.763Z,17.261
2023-10-22T11:55:36.258Z,16.436
2023-10-22T11:56:17.403Z,16.637
2023-10-22T11:57:18.203Z,16.778
2023-10-22T11:58:17.815Z,16.572
2023-10-22T11:59:17.434Z,16.701
2023-10-22T12:00:17.144Z,16.637
2023-10-22T12:01:18.118Z,16.920
2023-10-22T12:02:17.956Z,16.885
2023-10-22T12:03:18.018Z,17.117
2023-10-22T12:04:18.237Z,17.395
2023-10-22T12:05:16.993Z,17.155
2023-10-22T12:06:17.849Z,16.818
2023-10-22T12:07:17.593Z,16.738
2023-10-22T12:08:17.213Z,16.885
2023-10-22T12:09:17.023Z,17.237
2023-10-22T12:10:17.773Z,17.384
2023-10-22T12:11:17.898Z,17.088
2023-10-22T12:12:17.699Z,16.970
2023-10-22T12:13:17.852Z,16.564
2023-10-22T12:14:17.469Z,16.482
2023-10-22T12:15:17.107Z,16.655
2023-10-22T12:16:18.230Z,16.535
2023-10-22T12:18:18.698Z,16.658
2023-10-22T12:19:17.762Z,16.498
2023-10-22T12:20:17.539Z,16.423
2023-10-22T12:21:17.424Z,16.775
2023-10-22T12:24:27.624Z,16.866
2023-10-22T12:26:17.919Z,16.402
2023-10-22T12:27:17.913Z,16.599
2023-10-22T12:28:18.350Z,16.639
2023-10-22T12:29:17.213Z,16.741
2023-10-22T12:30:18.046Z,16.535
2023-10-22T12:32:17.604Z,16.426
2023-10-22T12:33:17.484Z,16.324
2023-10-22T12:34:17.470Z,16.065
2023-10-22T12:35:17.041Z,16.137
2023-10-22T12:36:17.172Z,16.204
2023-10-22T12:37:17.923Z,16.153
2023-10-22T12:38:17.555Z,16.129
2023-10-22T12:39:17.855Z,16.151
2023-10-22T12:40:17.194Z,16.247
2023-10-22T12:41:17.836Z,16.412
2023-10-22T12:43:17.247Z,16.546
2023-10-22T12:44:17.858Z,16.455
2023-10-22T12:45:17.858Z,16.364
2023-10-22T12:46:18.091Z,16.284
2023-10-22T12:47:17.273Z,16.407
2023-10-22T12:48:18.193Z,16.361
2023-10-22T12:49:17.203Z,16.356
2023-10-22T12:50:17.822Z,16.423
2023-10-22T12:52:17.566Z,17.072
2023-10-22T12:53:17.133Z,17.077
2023-10-22T12:54:18.005Z,17.090
2023-10-22T12:55:17.706Z,16.970
2023-10-22T12:56:17.299Z,16.802
2023-10-22T12:57:18.352Z,16.869
2023-10-22T12:58:17.076Z,16.775
2023-10-22T12:59:17.647Z,16.898
2023-10-22T13:00:17.466Z,16.727
2023-10-22T13:01:17.298Z,16.834
2023-10-22T13:02:17.489Z,16.858
2023-10-22T13:04:18.219Z,16.978
2023-10-22T13:05:17.286Z,17.090
2023-10-22T13:06:18.045Z,16.920
2023-10-22T13:07:18.227Z,16.834
2023-10-22T13:08:16.933Z,16.997
2023-10-22T13:09:17.642Z,17.125
2023-10-22T13:11:16.981Z,17.221
2023-10-22T13:12:17.801Z,17.200
2023-10-22T13:13:20.523Z,17.275
2023-10-22T13:14:17.120Z,17.026
2023-10-22T13:15:17.960Z,17.264
2023-10-22T13:16:18.178Z,17.245
2023-10-22T13:17:17.051Z,17.136
2023-10-22T13:18:17.983Z,17.058
2023-10-22T13:19:17.916Z,16.866
2023-10-22T13:20:17.474Z,16.855
2023-10-22T13:21:17.184Z,16.653
2023-10-22T13:24:17.622Z,16.834
2023-10-22T13:25:17.257Z,16.872
2023-10-22T13:26:17.842Z,16.968
2023-10-22T13:27:17.542Z,17.053
2023-10-22T13:28:17.342Z,17.248
2023-10-22T13:29:17.035Z,17.157
2023-10-22T13:30:17.957Z,16.957
2023-10-22T13:31:17.781Z,16.847
2023-10-22T13:32:20.815Z,16.831
2023-10-22T13:34:17.490Z,17.005
2023-10-22T13:35:17.098Z,16.842
2023-10-22T13:36:17.933Z,16.882
2023-10-22T13:37:17.728Z,16.741
2023-10-22T13:39:17.245Z,16.621
2023-10-22T13:40:17.032Z,16.647
2023-10-22T13:41:17.788Z,16.482
2023-10-22T13:42:17.555Z,16.511
2023-10-22T13:44:17.146Z,16.412
2023-10-22T13:45:18.173Z,16.386
2023-10-22T13:46:18.216Z,16.321
2023-10-22T13:47:16.966Z,16.364
2023-10-22T13:48:17.880Z,16.233
2023-10-22T13:49:17.967Z,16.244
2023-10-22T13:50:17.515Z,16.135
2023-10-22T13:51:17.464Z,16.180
2023-10-22T13:52:17.266Z,16.110
2023-10-22T13:53:17.837Z,16.137
2023-10-22T13:54:17.924Z,16.183
2023-10-22T13:55:18.177Z,16.159
2023-10-22T13:56:16.982Z,16.167
2023-10-22T13:57:17.822Z,15.950
2023-10-22T13:58:17.623Z,16.001
2023-10-22T14:01:18.273Z,16.177
2023-10-22T14:02:16.963Z,16.175
2023-10-22T14:03:18.379Z,16.257
2023-10-22T14:04:17.669Z,16.129
2023-10-22T14:05:17.848Z,16.268
2023-10-22T14:06:17.524Z,16.140
2023-10-22T14:07:17.283Z,16.108
2023-10-22T14:08:18.764Z,15.940
2023-10-22T14:09:17.494Z,15.929
2023-10-22T14:10:17.149Z,15.798
2023-10-22T14:11:17.789Z,15.801
2023-10-22T14:12:17.497Z,15.811
2023-10-22T14:14:17.856Z,15.878
2023-10-22T14:15:17.574Z,16.121
2023-10-22T14:16:17.270Z,16.295
2023-10-22T14:17:16.974Z,16.431
2023-10-22T14:18:18.190Z,16.610
2023-10-22T14:19:17.081Z,16.615
2023-10-22T14:20:17.973Z,16.674
2023-10-22T14:21:17.744Z,16.818
2023-10-22T14:22:17.761Z,16.794
2023-10-22T14:23:17.359Z,16.791
2023-10-22T14:24:17.079Z,16.738
2023-10-22T14:25:17.848Z,16.658
2023-10-22T14:26:17.418Z,16.722
2023-10-22T14:27:17.524Z,16.957
2023-10-22T14:28:20.759Z,16.997
2023-10-22T14:31:18.011Z,17.179
2023-10-22T14:32:16.888Z,17.275
2023-10-22T14:33:18.248Z,17.317
2023-10-22T14:34:28.585Z,17.539
2023-10-22T14:36:18.307Z,17.224
2023-10-22T14:37:17.106Z,17.109
2023-10-22T14:38:17.774Z,17.325
2023-10-22T14:39:17.474Z,17.251
2023-10-22T14:40:17.229Z,17.042
2023-10-22T14:41:17.861Z,17.058
2023-10-22T14:42:17.687Z,17.018
2023-10-22T14:43:17.539Z,16.882